Time;durP1;ratioP1;P1;durP2;ratioP2;P2;SDS_P1;SDS_P2;PMS_P1;PMS_P2;Temp;Humidity;BMP_temperature;BMP_pressure;BME280_temperature;BME280_humidity;BME280_pressure;Samples;Min_cycle;Max_cycle;Signal;HPM_P1;HPM_P2
2022/06/15 00:00:20;;;;;;;;;;;;;;;20.96;70.94;101140.41;7405170;19;1618;-57
2022/06/15 00:02:49;;;;;;;;;;;;;;;20.92;70.85;101142.53;7403326;19;1644;-58
2022/06/15 00:05:20;;;;;;;;;;;;;;;20.95;70.45;101150.31;7405013;19;1436;-58
2022/06/15 00:07:49;;;;;;;;;;;;;;;20.95;70.58;101127.94;7405026;19;1551;-57
2022/06/15 00:10:17;;;;;;;;;;;;;;;20.94;70.47;101137.00;7406545;19;1416;-57
2022/06/15 00:12:46;;;;;;;;;;;;;;;20.93;70.95;101136.16;7404057;19;1657;-58
2022/06/15 00:15:14;;;;;;;;;;;;;;;20.90;70.71;101139.13;7403009;19;1854;-58
2022/06/15 00:17:43;;;;;;;;;;;;;;;20.97;70.15;101139.41;7405082;19;1440;-58
2022/06/15 00:20:12;;;;;;;;;;;;;;;20.86;70.50;101133.16;7404336;19;1487;-57
2022/06/15 00:22:43;;;;;;;;;;;;;;;20.88;70.36;101141.09;7404930;19;1538;-57
2022/06/15 00:25:13;;;;;;;;;;;;;;;20.96;69.74;101145.78;7406105;19;1507;-57
2022/06/15 00:27:41;;;;;;;;;;;;;;;20.89;69.53;101150.88;7403638;19;1652;-58
2022/06/15 00:30:10;;;;;;;;;;;;;;;20.92;69.70;101164.03;7403782;19;1480;-59
2022/06/15 00:32:39;;;;;;;;;;;;;;;20.97;69.77;101142.97;7405325;19;1467;-58
2022/06/15 00:35:07;;;;;;;;;;;;;;;21.00;69.93;101144.53;7402193;19;1886;-58
2022/06/15 00:37:36;;;;;;;;;;;;;;;20.95;69.62;101144.94;7404335;19;1629;-59
2022/06/15 00:40:09;;;;;;;;;;;;;;;20.86;69.37;101135.00;7404929;19;1555;-58
2022/06/15 00:42:38;;;;;;;;;;;;;;;21.00;69.38;101158.81;7402388;19;1458;-59
2022/06/15 00:45:07;;;;;;;;;;;;;;;20.93;69.60;101141.53;7403381;19;1780;-58
2022/06/15 00:47:38;;;;;;;;;;;;;;;20.88;69.21;101146.47;7404622;19;1463;-59
2022/06/15 00:50:10;;;;;;;;;;;;;;;20.92;68.83;101144.38;7403389;19;1547;-58
2022/06/15 00:52:41;;;;;;;;;;;;;;;20.91;68.58;101148.91;7404074;19;1621;-58
2022/06/15 00:55:12;;;;;;;;;;;;;;;20.93;68.27;101136.16;7404072;19;1853;-59
2022/06/15 00:57:42;;;;;;;;;;;;;;;20.82;68.20;101129.06;7403310;19;1699;-59
2022/06/15 01:00:12;;;;;;;;;;;;;;;20.76;68.02;101131.47;7403309;19;1555;-58
2022/06/15 01:02:41;;;;;;;;;;;;;;;20.80;68.26;101140.94;7401820;19;1593;-59
2022/06/15 01:05:11;;;;;;;;;;;;;;;20.83;67.41;101140.66;7403130;19;1771;-59
2022/06/15 01:07:49;;;;;;;;;;;;;;;20.84;67.47;101115.50;7403164;19;1463;-58
2022/06/15 01:10:26;;;;;;;;;;;;;;;20.88;67.01;101154.53;7403611;19;1416;-59
2022/06/15 01:13:01;;;;;;;;;;;;;;;20.90;67.09;101157.94;7402644;19;1668;-59
2022/06/15 01:15:34;;;;;;;;;;;;;;;20.85;67.48;101136.03;7402053;19;1868;-58
2022/06/15 01:18:17;;;;;;;;;;;;;;;20.89;67.40;101140.13;7402825;19;1474;-58
2022/06/15 01:20:51;;;;;;;;;;;;;;;20.84;67.29;101147.75;7403659;19;1998;-59
2022/06/15 01:23:34;;;;;;;;;;;;;;;20.81;66.89;101148.00;7403607;19;1534;-58
2022/06/15 01:26:17;;;;;;;;;;;;;;;20.81;67.10;101156.06;7404642;19;1456;-59
2022/06/15 01:28:47;;;;;;;;;;;;;;;20.75;66.93;101138.69;7403584;19;1497;-58
2022/06/15 01:31:27;;;;;;;;;;;;;;;20.75;66.63;101153.94;7403207;19;1509;-58
2022/06/15 01:34:04;;;;;;;;;;;;;;;20.72;66.10;101164.97;7403338;19;1864;-58
2022/06/15 01:36:40;;;;;;;;;;;;;;;20.68;66.17;101152.81;7404094;19;1432;-58
2022/06/15 01:39:13;;;;;;;;;;;;;;;20.59;65.88;101152.66;7403258;19;1475;-58
2022/06/15 01:41:43;;;;;;;;;;;;;;;20.55;65.76;101159.25;7401330;19;1410;-58
2022/06/15 01:44:14;;;;;;;;;;;;;;;20.61;65.33;101147.09;7402121;19;1495;-59
2022/06/15 01:46:46;;;;;;;;;;;;;;;20.72;65.46;101143.47;7403122;19;1589;-59
2022/06/15 01:49:18;;;;;;;;;;;;;;;20.73;64.86;101134.41;7403420;19;1432;-59
2022/06/15 01:51:47;;;;;;;;;;;;;;;20.71;64.72;101137.25;7402276;19;1534;-58
2022/06/15 01:54:19;;;;;;;;;;;;;;;20.66;65.18;101143.03;7401615;19;1842;-58
2022/06/15 01:56:49;;;;;;;;;;;;;;;20.56;64.62;101126.00;7402513;19;1530;-59
2022/06/15 01:59:20;;;;;;;;;;;;;;;20.51;64.78;101130.06;7403242;19;1585;-59
2022/06/15 02:01:55;;;;;;;;;;;;;;;20.52;64.48;101143.38;7394918;19;1411;-59
2022/06/15 02:04:29;;;;;;;;;;;;;;;20.55;64.20;101144.94;7408118;19;1440;-59
2022/06/15 02:07:02;;;;;;;;;;;;;;;20.49;64.09;101134.75;7408486;19;1842;-59
2022/06/15 02:09:34;;;;;;;;;;;;;;;20.48;63.90;101144.66;7407401;19;1610;-59
2022/06/15 02:12:04;;;;;;;;;;;;;;;20.55;63.31;101140.44;7407505;19;1701;-59
2022/06/15 02:14:36;;;;;;;;;;;;;;;20.60;63.56;101151.63;7406750;19;1863;-59
2022/06/15 02:17:09;;;;;;;;;;;;;;;20.68;63.41;101150.13;7408172;19;1538;-59
2022/06/15 02:19:41;;;;;;;;;;;;;;;20.62;63.38;101152.34;7408090;19;1463;-58
2022/06/15 02:22:12;;;;;;;;;;;;;;;20.62;63.57;101154.19;7408451;19;1459;-58
2022/06/15 02:24:41;;;;;;;;;;;;;;;20.59;63.54;101173.25;7408039;19;1605;-59
2022/06/15 02:27:11;;;;;;;;;;;;;;;20.49;64.00;101158.91;7406018;19;1428;-59
2022/06/15 02:29:41;;;;;;;;;;;;;;;20.47;64.18;101164.41;7408753;19;1531;-59
2022/06/15 02:32:13;;;;;;;;;;;;;;;20.48;63.92;101168.81;7408914;19;1515;-59
2022/06/15 02:34:42;;;;;;;;;;;;;;;20.50;64.01;101156.09;7408368;19;1853;-59
2022/06/15 02:37:11;;;;;;;;;;;;;;;20.49;63.42;101181.25;7407299;19;1625;-59
2022/06/15 02:39:41;;;;;;;;;;;;;;;20.48;63.87;101179.56;7406660;19;1515;-58
2022/06/15 02:42:24;;;;;;;;;;;;;;;20.52;63.57;101186.38;7402873;19;1658;-59
2022/06/15 02:44:53;;;;;;;;;;;;;;;20.56;63.59;101177.06;7406957;19;1323;-59
2022/06/15 02:47:27;;;;;;;;;;;;;;;20.55;63.53;101175.38;7406243;19;1447;-59
2022/06/15 02:49:55;;;;;;;;;;;;;;;20.61;63.27;101190.97;7403069;19;1413;-59
2022/06/15 02:52:26;;;;;;;;;;;;;;;20.58;63.59;101180.44;7405535;19;1420;-59
2022/06/15 02:54:56;;;;;;;;;;;;;;;20.56;63.43;101178.91;7405851;19;1853;-59
2022/06/15 02:57:25;;;;;;;;;;;;;;;20.59;63.29;101194.75;7406199;19;1315;-59
2022/06/15 02:59:55;;;;;;;;;;;;;;;20.65;63.66;101197.78;7406155;19;1319;-59
2022/06/15 03:02:27;;;;;;;;;;;;;;;20.64;63.53;101179.94;7402256;19;1654;-59
2022/06/15 03:04:56;;;;;;;;;;;;;;;20.64;63.25;101179.94;7406744;19;1458;-59
2022/06/15 03:07:26;;;;;;;;;;;;;;;20.65;63.02;101183.47;7406701;19;1685;-59
2022/06/15 03:09:54;;;;;;;;;;;;;;;20.65;63.23;101187.03;7406812;19;1644;-59
2022/06/15 03:12:23;;;;;;;;;;;;;;;20.63;63.59;101199.75;7405720;19;1715;-59
2022/06/15 03:14:51;;;;;;;;;;;;;;;20.62;63.44;101189.13;7405062;19;1842;-59
2022/06/15 03:17:20;;;;;;;;;;;;;;;20.62;63.46;101207.94;7405241;19;1320;-59
2022/06/15 03:19:51;;;;;;;;;;;;;;;20.65;63.76;101192.41;7405373;19;1419;-59
2022/06/15 03:22:19;;;;;;;;;;;;;;;20.64;63.70;101185.31;7404992;19;1237;-59
2022/06/15 03:24:48;;;;;;;;;;;;;;;20.69;63.31;101197.47;7404761;19;1712;-59
2022/06/15 03:27:18;;;;;;;;;;;;;;;20.68;63.89;101191.28;7403928;19;1688;-59
2022/06/15 03:29:47;;;;;;;;;;;;;;;20.65;64.26;101202.28;7406185;19;1347;-59
2022/06/15 03:32:16;;;;;;;;;;;;;;;20.65;64.26;101208.53;7405496;19;1452;-59
2022/06/15 03:34:44;;;;;;;;;;;;;;;20.60;64.20;101210.75;7405336;19;1818;-59
2022/06/15 03:37:16;;;;;;;;;;;;;;;20.59;64.43;101210.88;7405373;19;1609;-59
2022/06/15 03:39:44;;;;;;;;;;;;;;;20.58;64.34;101218.06;7405792;19;1676;-59
2022/06/15 03:42:16;;;;;;;;;;;;;;;20.55;64.52;101206.72;7403838;19;1743;-59
2022/06/15 03:44:45;;;;;;;;;;;;;;;20.59;64.45;101203.69;7405395;19;1539;-59
2022/06/15 03:47:16;;;;;;;;;;;;;;;20.58;63.96;101217.22;7405582;19;1646;-59
2022/06/15 03:49:47;;;;;;;;;;;;;;;20.59;64.14;101224.31;7406010;19;1484;-59
2022/06/15 03:52:18;;;;;;;;;;;;;;;20.59;64.05;101222.50;7404825;19;1668;-59
2022/06/15 03:54:47;;;;;;;;;;;;;;;20.57;63.87;101221.75;7405100;19;1842;-59
2022/06/15 03:57:17;;;;;;;;;;;;;;;20.56;64.26;101225.41;7404111;19;1610;-60
2022/06/15 03:59:46;;;;;;;;;;;;;;;20.64;63.55;101220.25;7404006;19;1541;-59
2022/06/15 04:02:14;;;;;;;;;;;;;;;20.69;64.13;101224.34;7402805;19;1670;-60
2022/06/15 04:04:43;;;;;;;;;;;;;;;20.67;64.10;101221.81;7404884;19;1550;-59
2022/06/15 04:08:34;;;;;;;;;;;;;;;20.59;63.75;101225.19;7405346;19;1617;-59
2022/06/15 04:10:01;;;;;;;;;;;;;;;20.59;63.74;101230.56;7405530;19;1466;-59
2022/06/15 04:12:29;;;;;;;;;;;;;;;20.64;64.09;101232.84;7403733;19;1661;-59
2022/06/15 04:14:58;;;;;;;;;;;;;;;20.75;63.95;101224.69;7402444;19;1874;-60
2022/06/15 04:17:26;;;;;;;;;;;;;;;20.83;64.13;101234.72;7404696;19;1720;-59
2022/06/15 04:22:36;;;;;;;;;;;;;;;20.68;64.62;101236.94;7401344;19;1696;-59
2022/06/15 04:25:07;;;;;;;;;;;;;;;20.76;64.74;101220.16;7403828;19;1607;-59
2022/06/15 04:27:36;;;;;;;;;;;;;;;20.83;64.41;101238.28;7402664;19;1578;-59
2022/06/15 04:30:05;;;;;;;;;;;;;;;20.77;64.89;101241.53;7402409;19;1444;-59
2022/06/15 04:32:34;;;;;;;;;;;;;;;20.80;64.63;101243.09;7403525;19;1468;-59
2022/06/15 04:35:02;;;;;;;;;;;;;;;20.86;64.17;101246.06;7403400;19;1847;-60
2022/06/15 04:37:31;;;;;;;;;;;;;;;20.90;64.76;101235.91;7403835;19;1643;-60
2022/06/15 04:39:59;;;;;;;;;;;;;;;20.94;64.64;101231.94;7403167;19;1599;-60
2022/06/15 04:42:30;;;;;;;;;;;;;;;21.01;65.17;101235.81;7401217;19;1610;-61
2022/06/15 04:44:59;;;;;;;;;;;;;;;21.04;64.75;101235.50;7402219;19;1271;-61
2022/06/15 04:47:27;;;;;;;;;;;;;;;20.73;65.15;101180.09;7402939;19;1602;-61
2022/06/15 04:49:56;;;;;;;;;;;;;;;21.09;64.88;101240.50;7402074;19;1424;-59
2022/06/15 04:52:24;;;;;;;;;;;;;;;21.10;64.80;101233.28;7402997;19;1547;-59
2022/06/15 04:54:56;;;;;;;;;;;;;;;21.11;64.54;101251.09;7398209;19;1884;-59
2022/06/15 04:57:24;;;;;;;;;;;;;;;21.11;64.50;101240.34;7399004;19;1574;-59
2022/06/15 04:59:56;;;;;;;;;;;;;;;21.17;64.90;101250.53;7403787;19;1456;-57
2022/06/15 05:02:24;;;;;;;;;;;;;;;21.31;64.71;101251.97;7401283;19;1705;-59
2022/06/15 05:04:53;;;;;;;;;;;;;;;21.28;64.62;101252.28;7403025;19;1464;-60
2022/06/15 05:07:22;;;;;;;;;;;;;;;21.24;64.59;101246.31;7403129;19;1539;-59
2022/06/15 05:09:51;;;;;;;;;;;;;;;21.32;64.80;101249.16;7403714;19;1605;-59
2022/06/15 05:12:20;;;;;;;;;;;;;;;21.29;63.73;101240.50;7400744;19;1720;-59
2022/06/15 05:14:48;;;;;;;;;;;;;;;21.36;63.99;101238.97;7402465;19;1551;-59
2022/06/15 05:17:21;;;;;;;;;;;;;;;21.43;64.43;101249.09;7399711;19;1829;-59
2022/06/15 05:19:49;;;;;;;;;;;;;;;21.47;63.84;101254.16;7402576;19;1435;-58
2022/06/15 05:22:18;;;;;;;;;;;;;;;21.48;63.97;101256.72;7403601;19;1538;-58
2022/06/15 05:24:46;;;;;;;;;;;;;;;21.55;63.69;101259.72;7403263;19;1697;-59
2022/06/15 05:27:15;;;;;;;;;;;;;;;21.58;63.46;101254.88;7402891;19;1752;-56
2022/06/15 05:29:43;;;;;;;;;;;;;;;21.68;64.17;101260.28;7402876;19;1530;-58
2022/06/15 05:32:12;;;;;;;;;;;;;;;21.33;63.86;101191.69;7404063;19;1444;-58
2022/06/15 05:34:43;;;;;;;;;;;;;;;21.72;63.77;101260.84;7405569;19;1501;-57
2022/06/15 05:37:12;;;;;;;;;;;;;;;21.80;63.84;101261.81;7408433;19;1845;-57
2022/06/15 05:39:41;;;;;;;;;;;;;;;21.80;63.76;101259.13;7410687;19;1677;-57
2022/06/15 05:42:09;;;;;;;;;;;;;;;21.80;63.70;101261.81;7407166;19;1568;-58
2022/06/15 05:44:47;;;;;;;;;;;;;;;21.83;63.96;101260.72;7410943;19;1534;-58
2022/06/15 05:47:16;;;;;;;;;;;;;;;21.85;64.08;101266.81;7410793;19;1621;-58
2022/06/15 05:49:47;;;;;;;;;;;;;;;21.85;64.38;101272.19;7410883;19;1615;-58
2022/06/15 05:52:16;;;;;;;;;;;;;;;21.86;64.52;101273.88;7410677;19;1503;-58
2022/06/15 05:54:44;;;;;;;;;;;;;;;21.94;64.75;101282.09;7410781;19;1507;-57
2022/06/15 05:57:15;;;;;;;;;;;;;;;21.91;64.95;101276.16;7404922;19;1838;-58
2022/06/15 05:59:44;;;;;;;;;;;;;;;21.94;64.97;101286.63;7409842;19;1617;-58
2022/06/15 06:02:13;;;;;;;;;;;;;;;21.96;65.11;101257.72;7407918;19;1518;-58
2022/06/15 06:04:41;;;;;;;;;;;;;;;21.96;65.32;101281.97;7410411;19;1580;-58
2022/06/15 06:07:12;;;;;;;;;;;;;;;21.97;65.30;101283.66;7410906;19;1530;-58
2022/06/15 06:09:41;;;;;;;;;;;;;;;21.98;65.35;101279.97;7410083;19;1350;-58
2022/06/15 06:12:10;;;;;;;;;;;;;;;21.99;65.28;101287.06;7406676;19;1646;-58
2022/06/15 06:14:39;;;;;;;;;;;;;;;21.99;65.33;101289.75;7409225;19;1609;-58
2022/06/15 06:17:08;;;;;;;;;;;;;;;21.98;65.31;101290.75;7407768;19;1840;-57
2022/06/15 06:19:36;;;;;;;;;;;;;;;22.03;65.58;101286.63;7409413;19;1632;-58
2022/06/15 06:22:05;;;;;;;;;;;;;;;22.04;65.55;101295.56;7409980;19;1499;-58
2022/06/15 06:24:36;;;;;;;;;;;;;;;22.01;65.47;101280.53;7409642;19;1206;-58
2022/06/15 06:27:06;;;;;;;;;;;;;;;22.07;66.03;101291.75;7406523;19;1657;-57
2022/06/15 06:29:35;;;;;;;;;;;;;;;22.07;65.67;101294.44;7408845;19;1632;-58
2022/06/15 06:32:03;;;;;;;;;;;;;;;22.13;65.62;101286.63;7409950;19;1530;-58
2022/06/15 06:34:32;;;;;;;;;;;;;;;22.10;65.55;101284.22;7409607;19;1692;-58
2022/06/15 06:37:02;;;;;;;;;;;;;;;22.12;65.53;101290.31;7407707;19;1858;-58
2022/06/15 06:39:32;;;;;;;;;;;;;;;22.13;65.63;101288.47;7408525;19;1771;-58
2022/06/15 06:42:04;;;;;;;;;;;;;;;22.12;65.89;101290.31;7406650;19;1585;-58
2022/06/15 06:44:32;;;;;;;;;;;;;;;22.17;65.80;101281.81;7408669;19;1629;-58
2022/06/15 06:47:01;;;;;;;;;;;;;;;22.15;66.01;101289.19;7407626;19;1605;-58
2022/06/15 06:49:29;;;;;;;;;;;;;;;22.15;66.07;101273.88;7408875;19;1720;-58
2022/06/15 06:51:58;;;;;;;;;;;;;;;22.16;65.71;101280.97;7409028;19;1586;-58
2022/06/15 06:54:26;;;;;;;;;;;;;;;22.18;65.94;101289.75;7408664;19;1712;-58
2022/06/15 06:56:55;;;;;;;;;;;;;;;22.18;65.99;101284.38;7407204;19;1838;-58
2022/06/15 06:59:26;;;;;;;;;;;;;;;22.20;65.95;101300.34;7409454;19;1596;-58
2022/06/15 07:01:54;;;;;;;;;;;;;;;22.18;65.83;101287.06;7406841;19;1721;-58
2022/06/15 07:04:23;;;;;;;;;;;;;;;22.18;65.94;101314.00;7408736;19;1625;-58
2022/06/15 07:06:51;;;;;;;;;;;;;;;22.16;66.20;101291.75;7408224;19;1780;-58
2022/06/15 07:09:20;;;;;;;;;;;;;;;22.16;66.39;101290.88;7405747;19;1507;-58
2022/06/15 07:11:48;;;;;;;;;;;;;;;22.19;65.97;101296.81;7408603;19;1570;-58
2022/06/15 07:14:17;;;;;;;;;;;;;;;22.17;66.17;101282.66;7408420;19;1731;-58
2022/06/15 07:16:48;;;;;;;;;;;;;;;22.18;66.31;101289.75;7406023;19;1856;-58
2022/06/15 07:19:16;;;;;;;;;;;;;;;22.19;66.09;101290.59;7406967;19;1783;-58
2022/06/15 07:21:45;;;;;;;;;;;;;;;22.16;66.31;101301.66;7406444;19;1649;-58
2022/06/15 07:24:14;;;;;;;;;;;;;;;22.15;66.38;101294.56;7407472;19;1629;-58
2022/06/15 07:26:43;;;;;;;;;;;;;;;22.13;66.37;101308.19;7408273;19;1542;-58
2022/06/15 07:29:12;;;;;;;;;;;;;;;22.18;66.29;101300.53;7407703;19;1689;-57
2022/06/15 07:31:43;;;;;;;;;;;;;;;22.16;66.33;101301.66;7406600;19;1681;-58
2022/06/15 07:34:14;;;;;;;;;;;;;;;22.17;66.33;101304.19;7407088;19;1676;-57
2022/06/15 07:36:46;;;;;;;;;;;;;;;22.20;66.41;101309.31;7406148;19;1881;-58
2022/06/15 07:39:15;;;;;;;;;;;;;;;22.16;66.34;101297.13;7406542;19;1411;-58
2022/06/15 07:41:43;;;;;;;;;;;;;;;22.19;66.84;101307.59;7406403;19;1613;-58
2022/06/15 07:44:12;;;;;;;;;;;;;;;22.22;66.45;101311.84;7407225;19;1614;-57
2022/06/15 07:46:41;;;;;;;;;;;;;;;22.18;66.42;101302.34;7406595;19;1854;-58
2022/06/15 07:51:57;;;;;;;;;;;;;;;22.18;66.92;101313.13;7407069;19;1680;-58
2022/06/15 07:54:26;;;;;;;;;;;;;;;22.17;66.82;101306.91;7405518;19;1654;-58
2022/06/15 07:56:56;;;;;;;;;;;;;;;22.19;66.66;101312.16;7405716;19;1863;-58
2022/06/15 07:59:25;;;;;;;;;;;;;;;22.19;66.90;101309.44;7404831;19;1514;-58
2022/06/15 08:01:53;;;;;;;;;;;;;;;22.23;67.15;101311.72;7405210;19;1646;-58
2022/06/15 08:04:22;;;;;;;;;;;;;;;22.20;66.90;101309.31;7406720;19;1454;-58
2022/06/15 08:06:51;;;;;;;;;;;;;;;22.17;66.79;101296.13;7405883;19;1673;-58
2022/06/15 08:09:23;;;;;;;;;;;;;;;22.18;67.38;101303.22;7405296;19;1755;-58
2022/06/15 08:14:32;;;;;;;;;;;;;;;22.17;67.36;101303.34;7406109;19;1375;-58
2022/06/15 08:17:01;;;;;;;;;;;;;;;22.18;67.31;101305.91;7406296;19;1856;-58
2022/06/15 08:19:30;;;;;;;;;;;;;;;22.20;66.94;101308.44;7405926;19;1652;-58
2022/06/15 08:21:58;;;;;;;;;;;;;;;22.22;67.14;101306.44;7406028;19;1545;-58
2022/06/15 08:24:31;;;;;;;;;;;;;;;22.19;67.01;101302.22;7406233;19;1495;-58
2022/06/15 08:26:59;;;;;;;;;;;;;;;22.19;67.18;101294.13;7405815;19;1530;-58
2022/06/15 08:29:28;;;;;;;;;;;;;;;22.05;68.04;101302.66;7404702;19;1538;-58
2022/06/15 08:31:57;;;;;;;;;;;;;;;21.05;68.08;101290.16;7404937;19;1489;-58
2022/06/15 08:34:26;;;;;;;;;;;;;;;20.22;68.14;101298.16;7404082;19;1625;-57
2022/06/15 08:36:55;;;;;;;;;;;;;;;19.72;66.97;101313.19;7403610;19;1853;-58
2022/06/15 08:39:23;;;;;;;;;;;;;;;20.40;65.90;101319.91;7404127;19;1440;-57
2022/06/15 08:41:58;;;;;;;;;;;;;;;21.17;65.71;101307.91;7403798;19;1550;-58
2022/06/15 08:44:31;;;;;;;;;;;;;;;21.58;64.52;101297.09;7404368;19;1673;-58
2022/06/15 08:47:04;;;;;;;;;;;;;;;21.78;64.40;101304.19;7404689;19;1566;-58
2022/06/15 08:49:40;;;;;;;;;;;;;;;21.92;63.15;101315.53;7404275;19;1728;-59
2022/06/15 08:52:11;;;;;;;;;;;;;;;21.99;63.84;101301.38;7403834;19;1626;-57
2022/06/15 08:54:42;;;;;;;;;;;;;;;22.06;64.18;101312.41;7403554;19;1740;-61
2022/06/15 08:57:17;;;;;;;;;;;;;;;22.12;64.87;101306.47;7402654;19;1869;-60
2022/06/15 08:59:49;;;;;;;;;;;;;;;22.17;64.59;101306.91;7403303;19;1522;-62
2022/06/15 09:02:24;;;;;;;;;;;;;;;22.22;67.87;101301.94;7401344;19;1456;-59
2022/06/15 09:04:58;;;;;;;;;;;;;;;22.19;67.14;101307.59;7403903;19;1439;-63
2022/06/15 09:07:40;;;;;;;;;;;;;;;22.24;66.26;101305.38;7401718;19;2046;-58
2022/06/15 09:10:15;;;;;;;;;;;;;;;22.27;66.55;101314.16;7407673;19;1468;-59
2022/06/15 09:12:53;;;;;;;;;;;;;;;22.20;66.95;101295.84;7409652;19;1610;-59
2022/06/15 09:15:32;;;;;;;;;;;;;;;22.22;67.08;101307.31;7409679;19;1591;-58
2022/06/15 09:18:02;;;;;;;;;;;;;;;22.26;67.18;101307.06;7408162;19;1844;-62
2022/06/15 09:20:32;;;;;;;;;;;;;;;22.26;67.50;101294.44;7410034;19;1660;-59
2022/06/15 09:23:03;;;;;;;;;;;;;;;22.29;68.45;101306.78;7410666;19;1432;-59
2022/06/15 09:25:35;;;;;;;;;;;;;;;22.33;67.95;101317.13;7411663;19;1539;-59
2022/06/15 09:28:10;;;;;;;;;;;;;;;22.36;68.25;101324.06;7409643;19;1459;-59
2022/06/15 09:30:41;;;;;;;;;;;;;;;22.32;68.15;101317.25;7409657;19;1522;-59
2022/06/15 09:33:14;;;;;;;;;;;;;;;22.31;68.17;101310.19;7409777;19;1637;-59
2022/06/15 09:35:46;;;;;;;;;;;;;;;22.29;68.16;101302.22;7410114;19;1333;-60
2022/06/15 09:38:16;;;;;;;;;;;;;;;22.30;68.15;101306.59;7407212;19;1856;-59
2022/06/15 09:40:50;;;;;;;;;;;;;;;22.26;68.12;101307.06;7411271;19;1410;-59
2022/06/15 09:43:25;;;;;;;;;;;;;;;22.25;67.96;101306.22;7409514;19;1354;-59
2022/06/15 09:45:59;;;;;;;;;;;;;;;22.24;68.30;101299.97;7409512;19;1295;-59
2022/06/15 09:48:33;;;;;;;;;;;;;;;22.28;68.25;101295.13;7409670;19;1577;-58
2022/06/15 09:51:06;;;;;;;;;;;;;;;22.29;69.00;101301.41;7409354;19;1724;-59
2022/06/15 09:53:40;;;;;;;;;;;;;;;22.32;70.40;101311.88;7408340;19;1662;-57
2022/06/15 09:56:11;;;;;;;;;;;;;;;22.35;69.84;101311.59;7410451;19;1681;-56
2022/06/15 09:58:44;;;;;;;;;;;;;;;22.35;70.44;101312.44;7406172;19;1860;-59
2022/06/15 10:01:13;;;;;;;;;;;;;;;22.44;70.22;101337.66;7408136;19;1724;-60
2022/06/15 10:03:43;;;;;;;;;;;;;;;22.52;70.07;101297.38;7409283;19;1538;-60
2022/06/15 10:06:18;;;;;;;;;;;;;;;22.60;69.63;101302.00;7408445;19;1432;-59
2022/06/15 10:08:47;;;;;;;;;;;;;;;22.43;70.48;101304.47;7408882;19;1717;-58
2022/06/15 10:11:18;;;;;;;;;;;;;;;22.43;69.96;101298.25;7409524;19;1574;-58
2022/06/15 10:13:49;;;;;;;;;;;;;;;22.49;69.43;101297.66;7409812;19;1730;-58
2022/06/15 10:16:25;;;;;;;;;;;;;;;22.50;70.50;101304.75;7409495;19;1522;-58
2022/06/15 10:18:55;;;;;;;;;;;;;;;22.47;69.46;101293.41;7405245;19;1855;-59
2022/06/15 10:21:25;;;;;;;;;;;;;;;22.40;69.60;101295.81;7405928;19;1626;-59
2022/06/15 10:23:56;;;;;;;;;;;;;;;22.33;69.93;101286.63;7408348;19;1468;-58
2022/06/15 10:26:27;;;;;;;;;;;;;;;22.32;69.97;101293.88;7409699;19;1621;-59
2022/06/15 10:29:00;;;;;;;;;;;;;;;22.33;70.22;101300.09;7408700;19;1601;-59
2022/06/15 10:31:32;;;;;;;;;;;;;;;22.31;70.13;101292.16;7408182;19;1546;-59
2022/06/15 10:34:18;;;;;;;;;;;;;;;22.31;70.04;101288.63;7408849;19;1535;-59
2022/06/15 10:36:53;;;;;;;;;;;;;;;22.31;70.30;101294.00;7407319;19;1841;-59
2022/06/15 10:39:24;;;;;;;;;;;;;;;22.31;70.09;101299.41;7407881;19;1540;-59
2022/06/15 10:41:53;;;;;;;;;;;;;;;22.29;70.30;101282.53;7406869;19;1500;-59
2022/06/15 10:44:31;;;;;;;;;;;;;;;22.30;70.51;101286.91;7408195;19;1517;-58
2022/06/15 10:47:02;;;;;;;;;;;;;;;22.39;70.21;101291.44;7407702;19;1526;-58
2022/06/15 10:49:32;;;;;;;;;;;;;;;22.32;70.55;101284.91;7407689;19;1665;-59
2022/06/15 10:52:01;;;;;;;;;;;;;;;22.32;70.64;101293.88;7408236;19;1605;-59
2022/06/15 11:02:06;;;;;;;;;;;;;;;22.29;70.64;101274.44;7407426;19;1626;-59
2022/06/15 11:03:04;;;;;;;;;;;;;;;21.33;71.93;101269.72;7407876;19;1543;-58
2022/06/15 11:05:34;;;;;;;;;;;;;;;20.43;69.42;101274.00;7406977;19;1444;-58
2022/06/15 11:08:06;;;;;;;;;;;;;;;19.83;68.97;101268.34;7406926;19;1274;-58
2022/06/15 11:10:37;;;;;;;;;;;;;;;19.61;68.37;101269.25;7408523;19;1451;-58
2022/06/15 11:13:07;;;;;;;;;;;;;;;19.50;67.68;101284.53;7406732;19;1597;-58
2022/06/15 11:18:26;;;;;;;;;;;;;;;19.23;66.17;101278.59;7406265;19;1850;-61
2022/06/15 11:20:58;;;;;;;;;;;;;;;19.29;65.71;101266.53;7404786;19;1526;-61
2022/06/15 11:23:30;;;;;;;;;;;;;;;19.27;65.14;101273.84;7406352;19;1542;-61
2022/06/15 11:26:02;;;;;;;;;;;;;;;19.30;65.20;101275.44;7408383;19;1173;-61
2022/06/15 11:28:32;;;;;;;;;;;;;;;19.35;65.37;101263.34;7406442;19;1643;-61
2022/06/15 11:31:05;;;;;;;;;;;;;;;19.38;65.31;101276.53;7406336;19;1530;-61
2022/06/15 11:33:38;;;;;;;;;;;;;;;19.39;65.40;101262.13;7406363;19;1445;-61
2022/06/15 11:36:12;;;;;;;;;;;;;;;19.42;65.63;101261.88;7406184;19;1340;-61
2022/06/15 11:38:45;;;;;;;;;;;;;;;19.37;65.49;101257.88;7405123;19;1853;-61
2022/06/15 11:41:21;;;;;;;;;;;;;;;19.44;66.45;101264.44;7405597;19;1482;-61
2022/06/15 11:43:50;;;;;;;;;;;;;;;19.36;67.13;101259.72;7405267;19;1602;-61
2022/06/15 11:46:29;;;;;;;;;;;;;;;19.34;67.34;101274.19;7405543;19;1585;-61
2022/06/15 11:49:04;;;;;;;;;;;;;;;19.30;67.07;101272.75;7406258;19;1272;-61
2022/06/15 11:51:38;;;;;;;;;;;;;;;19.27;66.98;101279.22;7405002;19;1482;-61
2022/06/15 11:54:18;;;;;;;;;;;;;;;19.27;66.71;101268.50;7405596;19;1414;-61
2022/06/15 11:56:51;;;;;;;;;;;;;;;19.25;66.78;101257.03;7405648;19;1359;-60
2022/06/15 11:59:25;;;;;;;;;;;;;;;19.29;66.74;101277.25;7405019;19;1847;-61
2022/06/15 12:01:59;;;;;;;;;;;;;;;19.53;65.84;101249.41;7404924;19;1529;-61
2022/06/15 12:04:38;;;;;;;;;;;;;;;20.27;64.80;101277.16;7405805;19;1653;-61
2022/06/15 12:07:13;;;;;;;;;;;;;;;20.89;63.98;101273.66;7405954;19;1450;-61
2022/06/15 12:09:47;;;;;;;;;;;;;;;21.16;64.13;101254.22;7406497;19;1411;-61
2022/06/15 12:15:02;;;;;;;;;;;;;;;21.45;63.31;101254.34;7406150;19;1534;-58
2022/06/15 12:17:37;;;;;;;;;;;;;;;21.49;63.15;101262.94;7405098;19;1861;-59
2022/06/15 12:20:10;;;;;;;;;;;;;;;21.54;63.39;101263.38;7405448;19;1407;-59
2022/06/15 12:22:42;;;;;;;;;;;;;;;21.58;63.56;101265.66;7405408;19;1293;-58
2022/06/15 12:25:17;;;;;;;;;;;;;;;21.64;63.52;101259.69;7406075;19;1535;-58
2022/06/15 12:27:50;;;;;;;;;;;;;;;21.67;63.43;101263.97;7402506;19;1696;-59
2022/06/15 12:30:27;;;;;;;;;;;;;;;21.69;63.66;101259.31;7404661;19;1331;-58
2022/06/15 12:33:03;;;;;;;;;;;;;;;21.75;63.83;101252.50;7405535;19;1537;-59
2022/06/15 12:35:35;;;;;;;;;;;;;;;21.84;63.62;101270.47;7404937;19;1446;-58
2022/06/15 12:38:06;;;;;;;;;;;;;;;21.77;63.61;101254.06;7403530;19;1857;-59
2022/06/15 12:40:38;;;;;;;;;;;;;;;21.78;63.82;101255.75;7404387;19;1766;-59
2022/06/15 12:43:21;;;;;;;;;;;;;;;21.86;63.65;101252.34;7404571;19;1622;-59
2022/06/15 12:45:52;;;;;;;;;;;;;;;21.87;63.74;101242.44;7402764;19;1537;-58
2022/06/15 12:48:29;;;;;;;;;;;;;;;21.87;63.94;101247.81;7403944;19;1754;-58
2022/06/15 12:51:04;;;;;;;;;;;;;;;21.87;63.92;101242.44;7404215;19;1157;-59
2022/06/15 12:53:37;;;;;;;;;;;;;;;21.88;63.46;101230.66;7402121;19;1546;-58
2022/06/15 12:56:13;;;;;;;;;;;;;;;21.96;63.62;101242.41;7403780;19;1328;-59
2022/06/15 12:58:48;;;;;;;;;;;;;;;21.94;63.61;101227.41;7402031;19;1862;-59
2022/06/15 13:01:18;;;;;;;;;;;;;;;21.96;63.51;101225.41;7400963;19;1611;-59
2022/06/15 13:03:57;;;;;;;;;;;;;;;21.96;64.21;101241.56;7403342;19;1397;-59
2022/06/15 13:06:28;;;;;;;;;;;;;;;21.96;64.30;101233.47;7402029;19;1400;-59
2022/06/15 13:09:11;;;;;;;;;;;;;;;21.97;64.21;101221.72;7401926;19;1542;-59
2022/06/15 13:11:47;;;;;;;;;;;;;;;21.98;64.40;101242.28;7403461;19;1463;-59
2022/06/15 13:14:16;;;;;;;;;;;;;;;22.01;64.50;101226.69;7402058;19;1625;-61
2022/06/15 13:16:47;;;;;;;;;;;;;;;22.02;64.36;101223.00;7401895;19;1624;-61
2022/06/15 13:19:32;;;;;;;;;;;;;;;21.99;64.31;101239.44;7401679;19;1841;-61
2022/06/15 13:22:08;;;;;;;;;;;;;;;22.00;64.50;101226.81;7400661;19;1534;-61
2022/06/15 13:24:49;;;;;;;;;;;;;;;22.00;64.45;101222.31;7399703;19;1318;-59
2022/06/15 13:27:21;;;;;;;;;;;;;;;22.02;64.38;101225.69;7402151;19;1341;-60